Sioux Falls, SD (57101)

6:15 AM CDT on March 25, 2017 (GMT -0500)
Leaders | | Change Station

Elev 1355 ft 43.56 °N, 96.69 °W | Updated 20 seconds ago

Overcast
Overcast
33.5 °F
Feels Like 30 °F
N
4.0
Wind Variable Wind from NE

Today
High -- | Low -- °F
--% Chance of Precip.
Yesterday
High -- | Low -- °F
Precip. -- in
Pressure 30.11 in
Visibility 2.5 miles
Clouds Overcast 300 ft
Windchill 30 °F
Dew Point 33 °F
Humidity 98%
Rainfall 0.00 in
Snow Depth Not available.
7:20 AM 7:45 PM
Waning Crescent, 9% visible
SPECI KFSD 251113Z 04013KT 2 1/2SM BR OVC003 02/01 A3011 RMK AO2 SFC VIS 3 T00170011
Pressure 30.11 in
Visibility 2.5 miles
Clouds Overcast 300 ft
Windchill 30 °F
Dew Point 33 °F
Humidity 98%
Rainfall 0.00 in
Snow Depth Not available.
7:20 AM 7:45 PM
Waning Crescent, 9% visible
SPECI KFSD 251113Z 04013KT 2 1/2SM BR OVC003 02/01 A3011 RMK AO2 SFC VIS 3 T00170011

Get Severe Weather Alerts

Thanks for signing up!

Be on the lookout for a verification email in your inbox.

You'll start receiving the daily forecast at 8 AM.

×

10-Day Weather Forecast

Almanac

Astronomy

Mar. 25, 2017 Rise Set
Actual Time
Civil Twilight
Nautical Twilight
Astronomical Twilight
Moon
Length of Visible Light
Length of Day
Tomorrow will be .
, % of the Moon is Illuminated

Today's Extremes

State Highs State Lows

Community

WunderPhotos

Upload Photos

1,962,540 photos uploaded!

WunderBlog® & News

Nearby

Air Quality

  Air Quality AQ Index Pollutant
Not available.

Snow Depth

Station Depth Elevation

Earthquake Activity

City Distance Mag. Time & Date
Minimum magnitude displayed is 2.5.

Earthquake Activity

City Distance Mag. Time & Date
Minimum magnitude displayed is 2.5.

Coastal Water Temperatures

Place Temperature

Stations

Nearby Weather Stations

Station Location Temp. Windchill Dew Point Humidity Wind Precip. Elev Updated Type
                   

Watches & Warnings

There are currently no watches in effect.